Time;durP1;ratioP1;P1;durP2;ratioP2;P2;SDS_P1;SDS_P2;PMS_P1;PMS_P2;Temp;Humidity;BMP_temperature;BMP_pressure;BME280_temperature;BME280_humidity;BME280_pressure;Samples;Min_cycle;Max_cycle;Signal;HPM_P1;HPM_P2
2020/12/06 00:00:34;;;;;;;18.60;14.57;;;3.70;99.90;;;;;;5039572;28;20176;-87
2020/12/06 00:03:00;;;;;;;17.70;14.53;;;3.70;99.90;;;;;;5039366;28;20196;-86
2020/12/06 00:05:26;;;;;;;24.77;15.83;;;3.70;99.90;;;;;;5039351;28;20532;-87
2020/12/06 00:07:51;;;;;;;17.70;14.50;;;3.80;99.90;;;;;;5039396;28;20177;-87
2020/12/06 00:10:17;;;;;;;24.33;15.23;;;3.80;99.90;;;;;;5039453;28;20168;-87
2020/12/06 00:12:44;;;;;;;18.27;15.13;;;3.80;99.90;;;;;;5057031;28;20181;-87
2020/12/06 00:15:11;;;;;;;18.30;15.13;;;3.70;99.90;;;;;;5057130;28;20165;-88
2020/12/06 00:17:37;;;;;;;19.80;14.97;;;3.60;99.90;;;;;;5056984;28;20183;-86
2020/12/06 00:20:09;;;;;;;17.77;14.67;;;3.50;99.90;;;;;;5039290;28;20164;-86
2020/12/06 00:22:35;;;;;;;20.10;15.03;;;3.40;99.90;;;;;;5056607;28;20244;-88
2020/12/06 00:25:00;;;;;;;20.40;15.10;;;3.40;99.90;;;;;;5056808;28;20207;-86
2020/12/06 00:27:26;;;;;;;21.20;16.07;;;3.40;99.90;;;;;;5056407;28;20181;-86
2020/12/06 00:29:52;;;;;;;21.70;16.13;;;3.50;99.90;;;;;;5056623;28;20165;-85
2020/12/06 00:32:17;;;;;;;20.73;16.10;;;3.60;99.90;;;;;;5056656;28;20169;-86
2020/12/06 00:34:46;;;;;;;21.03;15.93;;;3.60;99.90;;;;;;5055977;28;20210;-86
2020/12/06 00:37:11;;;;;;;22.47;16.03;;;3.50;99.90;;;;;;5056266;28;20179;-84
2020/12/06 00:39:38;;;;;;;18.43;14.57;;;3.50;99.90;;;;;;5038043;28;20173;-86
2020/12/06 00:42:03;;;;;;;24.07;16.20;;;3.50;99.90;;;;;;5056170;28;20278;-86
2020/12/06 00:44:29;;;;;;;22.97;15.97;;;3.50;99.90;;;;;;5056435;28;20196;-87
2020/12/06 00:46:58;;;;;;;20.33;16.00;;;3.40;99.90;;;;;;5038517;28;20169;-85
2020/12/06 00:49:23;;;;;;;19.37;16.03;;;3.40;99.90;;;;;;5038877;28;20168;-86
2020/12/06 00:51:52;;;;;;;19.93;15.33;;;3.50;99.90;;;;;;5038585;28;20169;-86
2020/12/06 00:54:18;;;;;;;26.43;16.53;;;3.50;99.90;;;;;;5038384;28;20251;-86
2020/12/06 00:56:44;;;;;;;23.07;16.53;;;3.50;99.90;;;;;;5038216;28;20645;-86
2020/12/06 00:59:09;;;;;;;26.60;16.77;;;3.50;99.90;;;;;;5038277;28;20169;-86
2020/12/06 01:01:39;;;;;;;20.17;16.17;;;3.50;99.90;;;;;;5038214;28;20196;-86
2020/12/06 01:04:04;;;;;;;20.47;16.20;;;3.50;99.90;;;;;;5055551;28;20173;-86
2020/12/06 01:06:30;;;;;;;21.60;15.33;;;3.50;99.90;;;;;;5055619;28;20181;-86
2020/12/06 01:08:56;;;;;;;18.17;15.40;;;3.40;99.90;;;;;;5038191;28;20531;-85
2020/12/06 01:11:21;;;;;;;21.60;16.20;;;3.30;99.90;;;;;;5038285;28;20171;-86
2020/12/06 01:13:47;;;;;;;23.53;15.60;;;3.40;99.90;;;;;;5056462;28;20187;-86
2020/12/06 01:16:16;;;;;;;20.40;15.57;;;3.30;99.90;;;;;;5038168;28;20161;-85
2020/12/06 01:18:42;;;;;;;20.43;15.50;;;3.30;99.90;;;;;;5037570;28;20157;-86
2020/12/06 01:21:10;;;;;;;19.93;15.50;;;3.30;99.90;;;;;;5055424;28;20231;-86
2020/12/06 01:23:35;;;;;;;20.63;16.67;;;3.30;99.90;;;;;;5037862;28;20197;-87
2020/12/06 01:26:01;;;;;;;20.50;15.37;;;3.30;99.90;;;;;;5055635;28;20176;-85
2020/12/06 01:28:27;;;;;;;20.77;16.53;;;3.20;99.90;;;;;;5037892;28;20242;-86
2020/12/06 01:30:52;;;;;;;18.83;15.13;;;3.20;99.90;;;;;;5037702;28;20179;-86
2020/12/06 01:33:18;;;;;;;18.60;15.93;;;3.20;99.90;;;;;;5037533;28;20635;-85
2020/12/06 01:35:43;;;;;;;22.73;16.03;;;3.20;99.90;;;;;;5037534;28;20172;-86
2020/12/06 01:38:09;;;;;;;22.07;16.07;;;3.20;99.90;;;;;;5055378;28;20566;-86
2020/12/06 01:40:40;;;;;;;20.33;16.53;;;3.20;99.90;;;;;;5037580;28;20173;-87
2020/12/06 01:43:08;;;;;;;28.53;15.80;;;3.20;99.90;;;;;;5055169;28;20197;-86
2020/12/06 01:45:33;;;;;;;24.03;16.93;;;3.20;99.90;;;;;;5055862;28;20149;-87
2020/12/06 01:48:00;;;;;;;24.80;16.10;;;3.20;99.90;;;;;;5055204;28;20219;-86
2020/12/06 01:50:25;;;;;;;21.50;16.13;;;3.10;99.90;;;;;;5037078;28;20169;-86
2020/12/06 01:52:51;;;;;;;22.50;15.67;;;3.00;99.90;;;;;;5054087;28;20215;-86
2020/12/06 01:55:17;;;;;;;21.57;16.33;;;3.00;99.90;;;;;;5055055;28;20203;-86
2020/12/06 01:57:43;;;;;;;19.20;16.27;;;3.00;99.90;;;;;;5054659;28;20168;-86
2020/12/06 02:00:08;;;;;;;24.73;17.03;;;3.00;99.90;;;;;;5037148;28;20256;-87
2020/12/06 02:02:35;;;;;;;21.73;17.00;;;3.00;99.90;;;;;;5054888;28;20193;-87
2020/12/06 02:05:04;;;;;;;20.73;16.70;;;3.10;99.90;;;;;;5054265;28;20199;-87
2020/12/06 02:07:32;;;;;;;19.50;16.13;;;3.10;99.90;;;;;;5036661;28;20226;-86
2020/12/06 02:09:58;;;;;;;21.73;16.83;;;3.00;99.90;;;;;;5054772;28;20173;-86
2020/12/06 02:12:27;;;;;;;25.97;18.00;;;3.00;99.90;;;;;;5036647;28;20169;-86
2020/12/06 02:14:52;;;;;;;20.90;17.10;;;3.00;99.90;;;;;;5054728;28;20169;-86
2020/12/06 02:17:18;;;;;;;21.13;17.17;;;3.00;99.90;;;;;;5054395;28;20180;-86
2020/12/06 02:19:43;;;;;;;22.30;17.00;;;3.10;99.90;;;;;;5054645;28;20168;-87
2020/12/06 02:22:09;;;;;;;23.13;17.80;;;3.00;99.90;;;;;;5036294;28;20231;-86
2020/12/06 02:24:35;;;;;;;24.13;16.93;;;3.10;99.90;;;;;;5036541;28;20165;-87
2020/12/06 02:27:00;;;;;;;23.40;17.20;;;2.90;99.90;;;;;;5036806;28;20255;-87
2020/12/06 02:29:26;;;;;;;22.27;16.67;;;2.90;99.90;;;;;;5054393;28;20180;-87
2020/12/06 02:31:52;;;;;;;24.60;17.40;;;2.80;99.90;;;;;;5036734;28;20173;-87
2020/12/06 02:34:17;;;;;;;22.57;17.73;;;2.80;99.90;;;;;;5054243;28;20200;-86
2020/12/06 02:36:43;;;;;;;25.13;17.70;;;2.80;99.90;;;;;;5036638;28;20204;-86
2020/12/06 02:39:10;;;;;;;18.70;16.13;;;2.80;99.90;;;;;;5036505;28;20678;-86
2020/12/06 02:41:40;;;;;;;24.73;17.70;;;2.80;99.90;;;;;;5036227;28;20207;-86
2020/12/06 02:44:07;;;;;;;22.33;16.60;;;2.90;99.90;;;;;;5054031;28;20616;-86
2020/12/06 02:46:36;;;;;;;24.90;17.47;;;2.80;99.90;;;;;;5036327;28;20160;-85
2020/12/06 02:49:03;;;;;;;21.57;17.77;;;2.90;99.90;;;;;;5036082;28;20172;-85
2020/12/06 02:51:29;;;;;;;19.87;16.67;;;2.90;99.90;;;;;;5036271;28;20165;-86
2020/12/06 02:53:54;;;;;;;26.47;18.10;;;2.90;99.90;;;;;;5036175;28;20538;-86
2020/12/06 02:56:20;;;;;;;23.20;16.33;;;2.80;99.90;;;;;;5036050;28;20168;-85
2020/12/06 02:58:49;;;;;;;24.77;17.17;;;2.80;99.90;;;;;;5054060;28;20172;-86
2020/12/06 03:01:14;;;;;;;21.00;16.57;;;2.80;99.90;;;;;;5036193;28;20196;-85
2020/12/06 03:03:44;;;;;;;21.00;16.63;;;2.70;99.90;;;;;;5035642;28;20219;-86
2020/12/06 03:06:10;;;;;;;22.10;18.23;;;2.70;99.90;;;;;;5035969;28;20605;-86
2020/12/06 03:08:39;;;;;;;23.47;16.77;;;2.70;99.90;;;;;;5053764;28;20219;-86
2020/12/06 03:11:06;;;;;;;28.67;17.93;;;2.80;99.90;;;;;;5036216;28;20255;-86
2020/12/06 03:13:33;;;;;;;26.37;17.63;;;2.80;99.90;;;;;;5053456;28;20672;-86
2020/12/06 03:15:59;;;;;;;21.87;16.67;;;2.80;99.90;;;;;;5053936;28;20168;-86
2020/12/06 03:18:25;;;;;;;24.67;17.50;;;2.80;99.90;;;;;;5053666;28;20177;-86
2020/12/06 03:20:50;;;;;;;23.53;17.27;;;2.80;99.90;;;;;;5053555;28;20219;-86
2020/12/06 03:23:16;;;;;;;20.40;16.90;;;2.70;99.90;;;;;;5035934;28;20194;-86
2020/12/06 03:25:41;;;;;;;19.27;17.10;;;2.70;99.90;;;;;;5053586;28;20534;-87
2020/12/06 03:28:07;;;;;;;21.47;16.03;;;2.70;99.90;;;;;;5036024;28;20175;-85
2020/12/06 03:30:33;;;;;;;23.07;17.13;;;2.60;99.90;;;;;;5053611;28;20173;-86
2020/12/06 03:33:01;;;;;;;21.20;17.03;;;2.50;99.90;;;;;;5053849;28;20176;-86
2020/12/06 03:35:27;;;;;;;20.13;16.57;;;2.40;99.90;;;;;;5022824;28;20180;-85
2020/12/06 03:37:54;;;;;;;21.70;16.43;;;2.40;99.90;;;;;;5053733;28;20187;-86
2020/12/06 03:40:20;;;;;;;20.63;16.83;;;2.40;99.90;;;;;;5053782;28;20168;-86
2020/12/06 03:42:45;;;;;;;21.23;16.83;;;2.40;99.90;;;;;;5053576;28;20208;-86
2020/12/06 03:45:11;;;;;;;20.60;16.43;;;2.50;99.90;;;;;;5035862;28;20169;-86
2020/12/06 03:47:40;;;;;;;22.57;17.13;;;2.40;99.90;;;;;;5035734;28;20172;-86
2020/12/06 03:50:05;;;;;;;23.90;17.53;;;2.40;99.90;;;;;;5035724;28;20180;-86
2020/12/06 03:52:31;;;;;;;22.30;16.90;;;2.40;99.90;;;;;;5035754;28;20164;-86
2020/12/06 03:54:56;;;;;;;22.80;16.87;;;2.40;99.90;;;;;;5035932;28;20258;-86
2020/12/06 03:57:22;;;;;;;22.27;17.00;;;2.40;99.90;;;;;;5035817;28;20598;-87
2020/12/06 03:59:47;;;;;;;25.33;17.37;;;2.40;99.90;;;;;;5053671;28;20173;-87
2020/12/06 04:02:13;;;;;;;20.37;16.27;;;2.40;99.90;;;;;;5035632;28;20283;-86
2020/12/06 04:04:39;;;;;;;21.73;16.97;;;2.40;99.90;;;;;;5053130;28;20180;-86
2020/12/06 04:07:14;;;;;;;22.33;16.93;;;2.20;99.90;;;;;;5035471;28;20623;-87
2020/12/06 04:09:39;;;;;;;21.13;16.27;;;2.20;99.90;;;;;;5035816;28;20175;-86
2020/12/06 04:12:05;;;;;;;19.93;16.33;;;2.20;99.90;;;;;;5035428;28;20528;-87
2020/12/06 04:14:30;;;;;;;19.27;15.43;;;2.20;99.90;;;;;;5035482;28;20164;-86
2020/12/06 04:16:56;;;;;;;24.30;17.33;;;2.10;99.90;;;;;;5038964;28;20635;-86
2020/12/06 04:19:22;;;;;;;23.47;17.27;;;2.10;99.90;;;;;;5039380;28;20173;-86
2020/12/06 04:21:47;;;;;;;22.60;16.83;;;2.20;99.90;;;;;;5056531;28;20223;-86
2020/12/06 04:24:13;;;;;;;22.30;17.53;;;2.10;99.90;;;;;;5057446;28;20179;-86
2020/12/06 04:26:39;;;;;;;21.17;16.50;;;2.10;99.90;;;;;;5056734;28;20268;-86
2020/12/06 04:29:05;;;;;;;25.63;16.23;;;2.10;99.90;;;;;;5056958;28;20276;-85
2020/12/06 04:31:31;;;;;;;21.67;17.00;;;2.20;99.90;;;;;;5057080;28;20627;-86
2020/12/06 04:34:00;;;;;;;22.40;16.13;;;2.20;99.90;;;;;;5038292;28;20179;-86
2020/12/06 04:36:28;;;;;;;20.60;16.90;;;2.20;99.90;;;;;;5038581;28;20264;-86
2020/12/06 04:38:54;;;;;;;26.27;16.00;;;2.20;99.90;;;;;;5038980;28;20179;-87
2020/12/06 04:41:25;;;;;;;23.13;16.90;;;2.20;99.90;;;;;;5038812;28;20267;-86
2020/12/06 04:43:51;;;;;;;21.63;16.97;;;2.20;99.90;;;;;;5038901;28;20210;-87
2020/12/06 04:46:18;;;;;;;21.17;16.50;;;2.20;99.90;;;;;;5038715;28;20165;-86
2020/12/06 04:49:05;;;;;;;20.87;16.03;;;2.20;99.90;;;;;;5038846;28;20174;-87
2020/12/06 04:51:41;;;;;;;25.05;18.77;;;2.10;99.90;;;;;;5038401;28;20419;-86
2020/12/06 04:54:07;;;;;;;23.23;17.60;;;2.20;99.90;;;;;;5038837;28;20179;-86
2020/12/06 04:56:33;;;;;;;23.93;16.73;;;2.20;99.90;;;;;;5039019;28;20169;-86
2020/12/06 04:59:01;;;;;;;24.40;17.40;;;2.20;99.90;;;;;;5038885;28;20176;-86
2020/12/06 05:01:33;;;;;;;21.20;16.43;;;2.10;99.90;;;;;;5056307;28;20161;-87
2020/12/06 05:04:15;;;;;;;19.90;16.53;;;2.10;99.90;;;;;;5055477;28;20164;-86
2020/12/06 05:06:43;;;;;;;19.43;16.17;;;2.10;99.90;;;;;;5038407;28;20525;-87
2020/12/06 05:09:22;;;;;;;23.33;16.80;;;1.90;99.90;;;;;;5056206;28;20169;-86
2020/12/06 05:11:50;;;;;;;22.43;17.33;;;1.90;99.90;;;;;;5038326;28;20530;-86
2020/12/06 05:14:16;;;;;;;23.27;16.77;;;2.00;99.90;;;;;;5038130;28;20547;-87
2020/12/06 05:16:41;;;;;;;19.77;16.00;;;1.90;99.90;;;;;;5038348;28;20169;-87
2020/12/06 05:19:11;;;;;;;21.50;17.43;;;1.90;99.90;;;;;;5038131;28;20527;-86
2020/12/06 05:21:39;;;;;;;22.03;16.73;;;2.10;99.90;;;;;;5037647;28;20228;-86
2020/12/06 05:24:05;;;;;;;23.73;18.40;;;2.00;99.90;;;;;;5056017;28;20167;-87
2020/12/06 05:26:32;;;;;;;24.80;17.20;;;2.10;99.90;;;;;;5037925;28;20679;-86
2020/12/06 05:28:59;;;;;;;22.90;16.90;;;2.10;99.90;;;;;;5038069;28;20203;-86
2020/12/06 05:31:25;;;;;;;22.80;17.70;;;2.10;99.90;;;;;;5037968;28;20169;-87
2020/12/06 05:33:51;;;;;;;23.03;18.07;;;2.10;99.90;;;;;;5037524;28;20172;-88
2020/12/06 05:36:17;;;;;;;21.67;18.07;;;2.20;99.90;;;;;;5037841;28;20191;-88
2020/12/06 05:38:43;;;;;;;26.53;18.37;;;2.20;99.90;;;;;;5055615;28;20165;-87
2020/12/06 05:41:09;;;;;;;22.10;17.33;;;2.30;99.90;;;;;;5055577;28;20194;-87
2020/12/06 05:43:36;;;;;;;23.33;17.63;;;2.30;99.90;;;;;;5055996;28;20204;-87
2020/12/06 05:46:11;;;;;;;22.20;17.70;;;2.30;99.90;;;;;;5037455;28;20169;-87
2020/12/06 05:48:38;;;;;;;24.20;17.33;;;2.30;99.90;;;;;;5055466;28;20286;-87
2020/12/06 05:51:05;;;;;;;26.10;17.47;;;2.20;99.90;;;;;;5037628;28;20245;-87
2020/12/06 05:53:32;;;;;;;25.83;17.93;;;2.30;99.90;;;;;;5055259;28;20291;-86
2020/12/06 05:56:23;;;;;;;24.17;18.50;;;2.40;99.90;;;;;;5037682;28;20161;-87
2020/12/06 05:58:50;;;;;;;22.47;18.10;;;2.40;99.90;;;;;;5037488;28;20168;-86
2020/12/06 06:01:18;;;;;;;24.40;17.33;;;2.40;99.90;;;;;;5055189;28;20508;-87
2020/12/06 06:03:47;;;;;;;22.00;17.73;;;2.30;99.90;;;;;;5054847;28;20302;-86
2020/12/06 06:06:20;;;;;;;21.37;17.87;;;2.20;99.90;;;;;;5037319;28;20164;-87
2020/12/06 06:08:52;;;;;;;21.10;16.33;;;2.20;99.90;;;;;;5055109;28;20165;-87
2020/12/06 06:11:22;;;;;;;20.27;16.57;;;2.10;99.90;;;;;;5055089;28;20241;-86
2020/12/06 06:13:59;;;;;;;24.00;17.07;;;2.20;99.90;;;;;;5053621;28;20172;-87
2020/12/06 06:16:30;;;;;;;21.90;18.07;;;2.30;99.90;;;;;;5054846;28;20206;-87
2020/12/06 06:18:59;;;;;;;23.87;17.77;;;2.30;99.90;;;;;;5054839;28;20163;-87
2020/12/06 06:21:33;;;;;;;21.30;17.10;;;2.40;99.90;;;;;;5036818;28;20622;-87
2020/12/06 06:24:09;;;;;;;26.60;19.37;;;2.40;99.90;;;;;;5037181;28;20186;-86
2020/12/06 06:26:41;;;;;;;23.60;18.17;;;2.40;99.90;;;;;;5037901;28;20196;-87
2020/12/06 06:29:14;;;;;;;25.63;17.77;;;2.40;99.90;;;;;;5037051;28;20183;-85
2020/12/06 06:31:41;;;;;;;26.93;18.73;;;2.40;99.90;;;;;;5037331;28;20644;-86
2020/12/06 06:34:07;;;;;;;26.77;18.13;;;2.30;99.90;;;;;;5054356;28;20172;-87
2020/12/06 06:36:37;;;;;;;24.23;18.50;;;2.30;99.90;;;;;;5036874;28;20636;-87
2020/12/06 06:39:06;;;;;;;24.10;18.13;;;2.40;99.90;;;;;;5054339;28;20627;-87
2020/12/06 06:41:33;;;;;;;23.40;18.10;;;2.40;99.90;;;;;;5055051;28;20169;-86
2020/12/06 06:44:04;;;;;;;22.03;17.53;;;2.40;99.90;;;;;;5038701;28;20179;-86
2020/12/06 06:46:34;;;;;;;23.67;17.80;;;2.40;99.90;;;;;;5040491;28;20164;-87
2020/12/06 06:49:11;;;;;;;22.00;18.10;;;2.40;99.90;;;;;;5041671;28;20210;-86
2020/12/06 06:51:37;;;;;;;22.33;18.00;;;2.40;99.90;;;;;;5042621;28;20182;-86
2020/12/06 06:54:06;;;;;;;23.73;18.47;;;2.40;99.90;;;;;;5041185;28;20234;-86
2020/12/06 06:56:48;;;;;;;25.35;18.50;;;2.40;99.90;;;;;;5054922;28;20416;-87
2020/12/06 06:59:14;;;;;;;24.57;19.80;;;2.40;99.90;;;;;;5054515;28;20156;-87
2020/12/06 07:01:50;;;;;;;24.50;19.23;;;2.40;99.90;;;;;;5036600;28;20161;-86
2020/12/06 07:04:22;;;;;;;24.63;18.97;;;2.50;99.90;;;;;;5053873;28;20255;-87
2020/12/06 07:06:52;;;;;;;25.23;19.53;;;2.40;99.90;;;;;;5036321;28;20168;-84
2020/12/06 07:09:30;;;;;;;28.20;20.43;;;2.40;99.90;;;;;;5036288;28;20568;-86
2020/12/06 07:12:00;;;;;;;24.87;18.73;;;2.50;99.90;;;;;;5036378;28;20642;-86
2020/12/06 07:14:29;;;;;;;29.27;21.90;;;2.50;99.90;;;;;;5035701;28;20420;-86
2020/12/06 07:16:58;;;;;;;30.67;21.13;;;2.70;99.90;;;;;;5036245;28;20204;-86
2020/12/06 07:19:24;;;;;;;30.00;19.77;;;2.70;99.90;;;;;;5036017;28;20266;-86
2020/12/06 07:21:53;;;;;;;30.97;19.87;;;2.60;99.90;;;;;;5035770;28;20263;-85
2020/12/06 07:24:19;;;;;;;27.83;19.40;;;2.60;99.90;;;;;;5053766;28;20176;-87
2020/12/06 07:26:46;;;;;;;24.60;19.67;;;2.50;99.90;;;;;;5035998;28;20715;-87
2020/12/06 07:29:12;;;;;;;26.00;20.37;;;2.50;99.90;;;;;;5036117;28;20204;-88
2020/12/06 07:31:38;;;;;;;29.03;21.13;;;2.50;99.90;;;;;;5053882;28;20161;-87
2020/12/06 07:34:07;;;;;;;28.53;22.37;;;2.50;99.90;;;;;;5035465;28;20512;-87
2020/12/06 07:36:35;;;;;;;30.67;21.83;;;2.60;99.90;;;;;;5035713;28;20203;-87
2020/12/06 07:39:15;;;;;;;30.37;21.43;;;2.60;99.90;;;;;;5054142;28;20165;-85
2020/12/06 07:41:50;;;;;;;31.93;23.20;;;2.50;99.90;;;;;;5053704;28;20176;-87
2020/12/06 07:44:17;;;;;;;32.30;22.77;;;2.60;99.90;;;;;;5036031;28;20164;-87
2020/12/06 07:46:42;;;;;;;30.27;22.13;;;2.50;99.90;;;;;;5035958;28;20161;-88
2020/12/06 07:49:09;;;;;;;29.17;21.33;;;2.50;99.90;;;;;;5054195;28;20161;-87
2020/12/06 07:51:35;;;;;;;30.85;24.20;;;2.50;99.90;;;;;;5039272;28;20404;-87
2020/12/06 07:54:05;;;;;;;30.37;22.23;;;2.70;99.90;;;;;;5039549;28;20579;-87
2020/12/06 07:56:30;;;;;;;33.37;22.07;;;2.70;99.90;;;;;;5040085;28;20616;-86
2020/12/06 07:59:14;;;;;;;33.07;21.53;;;2.90;99.90;;;;;;5039653;28;20176;-87
2020/12/06 08:01:42;;;;;;;32.73;22.93;;;2.80;99.90;;;;;;5039463;28;20176;-89
2020/12/06 08:04:11;;;;;;;28.07;21.33;;;2.70;99.90;;;;;;5056676;28;20178;-87
2020/12/06 08:06:39;;;;;;;32.13;22.70;;;2.70;99.90;;;;;;5039422;28;20176;-87
2020/12/06 08:09:05;;;;;;;27.93;22.20;;;2.80;99.90;;;;;;5039389;28;20160;-86
2020/12/06 08:11:43;;;;;;;31.97;23.93;;;2.80;99.90;;;;;;5057367;28;20222;-86
2020/12/06 08:14:09;;;;;;;40.63;27.47;;;2.70;99.90;;;;;;5039275;28;20611;-86
2020/12/06 08:16:35;;;;;;;31.33;22.87;;;2.80;99.90;;;;;;5039416;28;20171;-87
2020/12/06 08:19:03;;;;;;;39.60;25.07;;;2.90;99.90;;;;;;5039115;28;20160;-86
2020/12/06 08:21:41;;;;;;;48.17;28.17;;;2.90;99.90;;;;;;5038969;28;20319;-87
2020/12/06 08:24:23;;;;;;;34.50;25.20;;;2.90;99.90;;;;;;5056949;28;20178;-87
2020/12/06 08:26:50;;;;;;;29.00;22.00;;;2.90;99.90;;;;;;5039111;28;20169;-85
2020/12/06 08:29:16;;;;;;;28.23;21.90;;;3.00;99.90;;;;;;5056807;28;20168;-85
2020/12/06 08:31:48;;;;;;;31.97;22.80;;;3.10;99.90;;;;;;5038895;28;20168;-85
2020/12/06 08:34:15;;;;;;;31.23;24.47;;;3.20;99.90;;;;;;5033132;28;20168;-86
2020/12/06 08:36:41;;;;;;;29.43;22.83;;;3.30;99.90;;;;;;5018858;28;20168;-86
2020/12/06 08:39:21;;;;;;;37.87;25.00;;;3.30;99.90;;;;;;5036714;28;20165;-86
2020/12/06 08:41:48;;;;;;;32.10;23.77;;;3.40;99.90;;;;;;5018800;28;20165;-86
2020/12/06 08:44:14;;;;;;;36.50;24.27;;;3.40;99.90;;;;;;5018740;28;20177;-85
2020/12/06 08:46:55;;;;;;;30.20;23.90;;;3.40;99.90;;;;;;5036394;28;20257;-86
2020/12/06 08:49:21;;;;;;;32.57;23.83;;;3.50;99.90;;;;;;5036446;28;20165;-85
2020/12/06 08:51:52;;;;;;;32.17;23.80;;;3.50;99.90;;;;;;5018616;28;20574;-86
2020/12/06 08:54:35;;;;;;;36.67;23.03;;;3.60;99.90;;;;;;5018377;28;20165;-86
2020/12/06 08:57:11;;;;;;;33.10;21.83;;;3.70;99.90;;;;;;5018604;28;20166;-86
2020/12/06 08:59:38;;;;;;;30.48;24.15;;;3.60;99.90;;;;;;5035938;28;20422;-86
2020/12/06 09:02:04;;;;;;;32.50;22.70;;;3.60;99.90;;;;;;5047720;28;20283;-86
2020/12/06 09:04:33;;;;;;;31.93;22.60;;;3.60;99.90;;;;;;5038242;28;20169;-86
2020/12/06 09:06:59;;;;;;;33.47;26.73;;;3.50;99.90;;;;;;5036895;28;20473;-86
2020/12/06 09:09:24;;;;;;;29.53;22.77;;;3.80;99.90;;;;;;5021743;28;20182;-86
2020/12/06 09:11:52;;;;;;;33.83;23.13;;;3.90;99.90;;;;;;5036112;28;20169;-86
2020/12/06 09:14:17;;;;;;;29.70;23.23;;;3.80;99.90;;;;;;5018303;28;20248;-86
2020/12/06 09:16:43;;;;;;;33.70;26.37;;;3.90;99.90;;;;;;5035183;28;20998;-86
2020/12/06 09:19:11;;;;;;;31.00;23.93;;;4.10;99.90;;;;;;5035956;28;20420;-86
2020/12/06 09:21:40;;;;;;;30.53;23.53;;;4.10;99.90;;;;;;5046222;28;20224;-86
2020/12/06 09:24:06;;;;;;;29.67;23.43;;;4.00;99.90;;;;;;5055648;28;20627;-86
2020/12/06 09:26:31;;;;;;;29.13;21.93;;;3.90;99.90;;;;;;5055691;28;20243;-85
2020/12/06 09:28:57;;;;;;;31.00;23.50;;;3.90;99.90;;;;;;5055619;28;20185;-86
2020/12/06 09:31:23;;;;;;;35.40;24.33;;;3.90;99.90;;;;;;5037480;28;20247;-85
2020/12/06 09:33:50;;;;;;;32.37;22.17;;;4.00;99.90;;;;;;5037212;28;20651;-85
2020/12/06 09:36:15;;;;;;;31.87;23.23;;;3.90;99.90;;;;;;5037544;28;20221;-85
2020/12/06 09:38:41;;;;;;;35.40;22.57;;;3.90;99.90;;;;;;5037300;28;20168;-86
2020/12/06 09:41:12;;;;;;;34.67;23.53;;;4.00;99.90;;;;;;5055255;28;20556;-86
2020/12/06 09:43:44;;;;;;;34.23;23.83;;;4.10;99.90;;;;;;5037374;28;20242;-86
2020/12/06 09:46:11;;;;;;;34.97;23.80;;;4.00;99.90;;;;;;5037277;28;20156;-86
2020/12/06 09:48:41;;;;;;;30.73;24.30;;;4.10;99.90;;;;;;5055227;28;20165;-86
2020/12/06 09:51:09;;;;;;;33.20;24.50;;;4.20;99.90;;;;;;5055184;28;20157;-86
2020/12/06 09:53:35;;;;;;;38.30;24.00;;;4.30;99.90;;;;;;5055695;28;20169;-86
2020/12/06 09:56:01;;;;;;;31.47;23.70;;;4.30;99.90;;;;;;5037348;28;20222;-86
2020/12/06 09:58:27;;;;;;;34.87;24.77;;;4.30;99.90;;;;;;5036949;28;20173;-85
2020/12/06 10:00:53;;;;;;;40.87;26.83;;;4.20;99.90;;;;;;5036619;28;20658;-85
2020/12/06 10:03:21;;;;;;;37.57;27.13;;;4.20;99.90;;;;;;5054525;28;20204;-86
2020/12/06 10:05:47;;;;;;;38.40;27.17;;;4.30;99.90;;;;;;5036742;28;20183;-86
2020/12/06 10:08:12;;;;;;;37.53;27.23;;;4.40;99.90;;;;;;5036786;28;20561;-86
2020/12/06 10:10:40;;;;;;;38.27;27.77;;;4.40;99.90;;;;;;5055177;28;20165;-86
2020/12/06 10:13:06;;;;;;;40.43;27.27;;;4.50;99.90;;;;;;5054355;28;20169;-86
2020/12/06 10:15:31;;;;;;;38.90;26.97;;;4.60;99.90;;;;;;5054545;28;20172;-86
2020/12/06 10:17:57;;;;;;;42.13;28.67;;;4.80;99.90;;;;;;5036678;28;20535;-85
2020/12/06 10:20:23;;;;;;;37.40;27.20;;;4.90;99.90;;;;;;5036502;28;20251;-86
2020/12/06 10:22:48;;;;;;;48.30;30.30;;;4.90;99.90;;;;;;5054265;28;20211;-86
2020/12/06 10:25:14;;;;;;;39.37;28.93;;;5.10;99.90;;;;;;5036673;28;20153;-86
2020/12/06 10:27:40;;;;;;;42.45;32.53;;;5.10;99.90;;;;;;5053789;28;20922;-85
2020/12/06 10:30:07;;;;;;;44.50;30.83;;;5.20;99.90;;;;;;5036490;28;20559;-85
2020/12/06 10:32:32;;;;;;;45.23;29.90;;;5.30;99.90;;;;;;5035848;28;20210;-85
2020/12/06 10:34:58;;;;;;;45.03;30.00;;;5.40;99.90;;;;;;5054056;28;20169;-86
2020/12/06 10:37:24;;;;;;;48.43;34.43;;;5.40;99.90;;;;;;5035478;28;20418;-86
2020/12/06 10:39:50;;;;;;;44.17;32.13;;;5.80;99.90;;;;;;5054165;28;20426;-86
2020/12/06 10:42:15;;;;;;;40.67;30.80;;;5.80;99.90;;;;;;5036359;28;20616;-85
2020/12/06 10:44:41;;;;;;;42.80;29.90;;;5.80;99.90;;;;;;5036144;28;20173;-85
2020/12/06 10:47:07;;;;;;;46.33;30.20;;;6.00;99.90;;;;;;5036079;28;20631;-84
2020/12/06 10:49:33;;;;;;;38.43;28.40;;;5.90;99.90;;;;;;5036177;28;20157;-85
2020/12/06 10:51:58;;;;;;;39.73;29.07;;;5.90;99.90;;;;;;5036052;28;20199;-84
2020/12/06 10:54:24;;;;;;;46.73;31.07;;;5.80;99.90;;;;;;5035951;28;20175;-85
2020/12/06 10:56:50;;;;;;;40.40;29.33;;;5.80;99.90;;;;;;5053927;28;20172;-86
2020/12/06 10:59:15;;;;;;;45.10;30.07;;;5.90;99.90;;;;;;5053895;28;20172;-86
2020/12/06 11:01:41;;;;;;;39.70;29.00;;;5.90;99.90;;;;;;5035769;28;20256;-88
2020/12/06 11:04:07;;;;;;;36.27;27.77;;;6.00;99.90;;;;;;5035813;28;20177;-88
2020/12/06 11:06:33;;;;;;;45.63;29.87;;;6.10;99.90;;;;;;5036134;28;20157;-87
2020/12/06 11:08:59;;;;;;;41.97;31.50;;;6.20;99.90;;;;;;5054446;28;20176;-87
2020/12/06 11:11:25;;;;;;;47.27;29.60;;;6.30;99.90;;;;;;5036264;28;20247;-87
2020/12/06 11:13:51;;;;;;;42.27;30.60;;;6.30;99.90;;;;;;5036194;28;20272;-88
2020/12/06 11:16:19;;;;;;;39.87;29.63;;;6.30;99.90;;;;;;5036159;28;20214;-87
2020/12/06 11:18:46;;;;;;;45.00;29.90;;;6.30;99.90;;;;;;5053876;28;20161;-87
2020/12/06 11:21:15;;;;;;;43.27;29.90;;;6.20;99.90;;;;;;5035649;28;20216;-87
2020/12/06 11:23:41;;;;;;;49.20;30.43;;;6.10;99.90;;;;;;5054085;28;20188;-87
2020/12/06 11:26:08;;;;;;;40.13;29.23;;;6.10;99.90;;;;;;5042381;28;20172;-87
2020/12/06 11:28:36;;;;;;;41.43;29.80;;;6.00;99.90;;;;;;5041959;28;20275;-88
2020/12/06 11:31:01;;;;;;;45.10;30.07;;;6.40;99.90;;;;;;5042062;28;20243;-87
2020/12/06 11:33:27;;;;;;;43.30;29.37;;;6.40;99.90;;;;;;5042728;28;20267;-88
2020/12/06 11:35:53;;;;;;;43.77;26.53;;;6.50;99.90;;;;;;5042368;28;20171;-87
2020/12/06 11:38:18;;;;;;;39.83;24.63;;;6.90;99.90;;;;;;5059171;28;20529;-88
2020/12/06 11:40:44;;;;;;;43.07;25.23;;;6.80;99.90;;;;;;5042718;28;20172;-87
2020/12/06 11:43:09;;;;;;;42.07;24.73;;;6.80;99.90;;;;;;5060296;28;20196;-89
2020/12/06 11:45:36;;;;;;;50.23;25.67;;;6.80;99.90;;;;;;5042542;28;20676;-87
2020/12/06 11:48:02;;;;;;;39.37;25.13;;;6.80;99.90;;;;;;5060239;28;20171;-88
2020/12/06 11:50:28;;;;;;;42.13;26.17;;;6.90;99.90;;;;;;5060206;28;20161;-88
2020/12/06 11:52:53;;;;;;;42.33;26.10;;;6.40;99.90;;;;;;5059857;28;20176;-86
2020/12/06 11:55:19;;;;;;;40.57;25.67;;;6.40;99.90;;;;;;5060196;28;20172;-87
2020/12/06 11:57:45;;;;;;;40.40;25.53;;;6.60;99.90;;;;;;5042297;28;20180;-87
2020/12/06 12:00:14;;;;;;;45.17;32.25;;;6.70;99.90;;;;;;5058210;28;20906;-87
2020/12/06 12:02:43;;;;;;;39.17;28.00;;;6.80;99.90;;;;;;5040774;28;20283;-87
2020/12/06 12:05:09;;;;;;;41.63;26.73;;;7.00;99.90;;;;;;5041837;28;20176;-88
2020/12/06 12:07:35;;;;;;;39.70;25.13;;;7.00;99.90;;;;;;5042311;28;20210;-88
2020/12/06 12:10:04;;;;;;;43.93;26.47;;;6.80;99.90;;;;;;5042149;28;20164;-87
2020/12/06 12:12:30;;;;;;;43.73;24.17;;;6.50;99.90;;;;;;5041999;28;20177;-87
2020/12/06 12:14:55;;;;;;;41.80;25.63;;;6.60;99.90;;;;;;5060014;28;20163;-88
2020/12/06 12:17:21;;;;;;;43.60;25.87;;;6.60;99.90;;;;;;5042265;28;20247;-88
2020/12/06 12:19:46;;;;;;;44.17;24.40;;;6.50;99.90;;;;;;5042222;28;20588;-88
2020/12/06 12:22:13;;;;;;;41.23;24.40;;;6.60;99.90;;;;;;5041790;28;20220;-88
2020/12/06 12:24:39;;;;;;;47.40;24.60;;;6.70;99.90;;;;;;5041909;28;20650;-87
2020/12/06 12:27:04;;;;;;;40.13;23.63;;;6.70;99.90;;;;;;5059863;28;20161;-87
2020/12/06 12:29:31;;;;;;;42.17;24.93;;;6.70;99.90;;;;;;5059690;28;20254;-88
2020/12/06 12:31:56;;;;;;;40.23;24.83;;;6.70;99.90;;;;;;5040172;28;20167;-88
2020/12/06 12:34:22;;;;;;;41.10;24.07;;;6.90;99.90;;;;;;5032321;28;20165;-87
2020/12/06 12:36:47;;;;;;;36.57;24.47;;;6.90;99.90;;;;;;5036773;28;20263;-88